createdAt,value
2018-05-24T00:02:15.654Z,39.90
2018-05-24T00:04:44.543Z,39.57
2018-05-24T00:07:14.013Z,39.93
2018-05-24T00:09:42.286Z,36.90
2018-05-24T00:12:10.477Z,38.37
2018-05-24T00:14:38.763Z,37.47
2018-05-24T00:17:07.053Z,38.87
2018-05-24T00:19:36.493Z,42.83
2018-05-24T00:22:07.184Z,41.23
2018-05-24T00:24:35.692Z,42.37
2018-05-24T00:27:05.099Z,41.40
2018-05-24T00:29:33.381Z,42.80
2018-05-24T00:32:01.494Z,42.77
2018-05-24T00:34:29.702Z,45.17
2018-05-24T00:36:58.589Z,47.50
2018-05-24T00:39:28.215Z,45.40
2018-05-24T00:41:58.414Z,47.57
2018-05-24T00:44:26.575Z,48.87
2018-05-24T00:46:54.684Z,45.47
2018-05-24T00:49:22.815Z,46.30
2018-05-24T00:51:50.950Z,45.40
2018-05-24T00:54:19.160Z,49.60
2018-05-24T00:56:48.389Z,49.17
2018-05-24T00:59:17.272Z,48.87
2018-05-24T01:01:46.183Z,49.00
2018-05-24T01:04:14.463Z,50.53
2018-05-24T01:06:42.708Z,48.40
2018-05-24T01:09:11.611Z,48.20
2018-05-24T01:11:40.511Z,52.00
2018-05-24T01:14:10.386Z,48.93
2018-05-24T01:16:39.009Z,48.23
2018-05-24T01:19:07.892Z,49.33
2018-05-24T01:21:36.108Z,49.20
2018-05-24T01:24:04.933Z,57.77
2018-05-24T01:26:33.052Z,54.97
2018-05-24T01:29:01.176Z,57.03
2018-05-24T01:31:29.303Z,53.93
2018-05-24T01:33:57.410Z,53.60
2018-05-24T01:36:37.503Z,52.70
2018-05-24T01:39:06.379Z,56.10
2018-05-24T01:41:34.517Z,56.00
2018-05-24T01:44:02.727Z,57.23
2018-05-24T01:46:30.880Z,57.77
2018-05-24T01:48:59.025Z,57.93
2018-05-24T01:51:27.359Z,56.63
2018-05-24T01:53:55.519Z,54.30
2018-05-24T01:56:23.729Z,53.20
2018-05-24T01:58:52.430Z,53.53
2018-05-24T02:01:21.357Z,52.60
2018-05-24T02:03:49.488Z,54.90
2018-05-24T02:06:17.822Z,51.77
2018-05-24T02:08:45.937Z,54.97
2018-05-24T02:11:14.085Z,52.40
2018-05-24T02:13:42.207Z,53.37
2018-05-24T02:16:10.317Z,52.37
2018-05-24T02:18:39.700Z,53.27
2018-05-24T02:21:15.454Z,52.30
2018-05-24T02:23:44.011Z,51.93
2018-05-24T02:26:12.087Z,54.50
2018-05-24T02:28:40.203Z,51.43
2018-05-24T02:31:08.307Z,54.17
2018-05-24T02:33:36.467Z,50.30
2018-05-24T02:36:06.758Z,49.53
2018-05-24T02:38:34.760Z,51.33
2018-05-24T02:41:03.641Z,50.23
2018-05-24T02:43:31.731Z,51.00
2018-05-24T02:46:00.432Z,54.37
2018-05-24T02:48:28.729Z,54.03
2018-05-24T02:50:56.868Z,49.13
2018-05-24T02:53:26.085Z,50.67
2018-05-24T02:55:54.209Z,50.30
2018-05-24T02:58:22.538Z,47.83
2018-05-24T03:00:50.697Z,48.03
2018-05-24T03:03:18.830Z,46.23
2018-05-24T03:05:47.546Z,49.03
2018-05-24T03:08:15.722Z,44.87
2018-05-24T03:10:44.492Z,46.40
2018-05-24T03:13:13.939Z,45.03
2018-05-24T03:15:42.065Z,43.77
2018-05-24T03:18:10.186Z,44.17
2018-05-24T03:20:38.456Z,42.70
2018-05-24T03:23:07.351Z,40.73
2018-05-24T03:25:35.493Z,41.57
2018-05-24T03:28:04.383Z,38.90
2018-05-24T03:30:33.393Z,42.37
2018-05-24T03:33:02.278Z,41.43
2018-05-24T03:35:30.489Z,38.73
2018-05-24T03:37:58.619Z,39.20
2018-05-24T03:40:27.509Z,38.70
2018-05-24T03:42:58.038Z,37.80
2018-05-24T03:45:26.210Z,36.50
2018-05-24T03:47:55.125Z,37.63
2018-05-24T03:50:23.257Z,36.57
2018-05-24T03:52:51.369Z,36.00
2018-05-24T03:55:19.529Z,37.03
2018-05-24T03:57:48.981Z,34.20
2018-05-24T04:00:29.937Z,33.90
2018-05-24T04:03:09.776Z,35.93
2018-05-24T04:05:41.060Z,35.00
2018-05-24T04:08:09.362Z,32.73
2018-05-24T04:10:37.833Z,32.53
2018-05-24T04:13:06.004Z,32.00
2018-05-24T04:15:34.600Z,30.97
2018-05-24T04:18:02.711Z,28.80
2018-05-24T04:20:31.822Z,23.73
2018-05-24T04:22:59.940Z,24.00
2018-05-24T04:25:28.272Z,22.83
2018-05-24T04:27:56.401Z,22.03
2018-05-24T04:30:25.311Z,20.70
2018-05-24T04:32:53.475Z,21.10
2018-05-24T04:35:21.606Z,17.63
2018-05-24T04:37:49.819Z,17.40
2018-05-24T04:40:18.763Z,17.73
2018-05-24T04:42:46.882Z,15.73
2018-05-24T04:45:15.063Z,15.10
2018-05-24T04:47:44.904Z,15.87
2018-05-24T04:50:13.529Z,14.83
2018-05-24T04:52:42.587Z,13.80
2018-05-24T04:55:10.721Z,14.27
2018-05-24T04:57:38.855Z,13.97
2018-05-24T05:00:06.981Z,14.57
2018-05-24T05:02:36.162Z,14.40
2018-05-24T05:05:05.031Z,12.67
2018-05-24T05:07:33.263Z,14.07
2018-05-24T05:10:02.547Z,14.20
2018-05-24T05:12:31.010Z,13.87
2018-05-24T05:14:59.911Z,14.87
2018-05-24T05:17:29.967Z,13.00
2018-05-24T05:19:58.091Z,13.83
2018-05-24T05:22:27.511Z,12.80
2018-05-24T05:24:55.641Z,13.13
2018-05-24T05:27:23.940Z,12.77
2018-05-24T05:29:52.822Z,13.20
2018-05-24T05:32:22.136Z,12.83
2018-05-24T05:34:51.045Z,12.93
2018-05-24T05:37:19.169Z,12.37
2018-05-24T05:39:47.285Z,12.80
2018-05-24T05:42:15.404Z,13.17
2018-05-24T05:44:44.588Z,12.87
2018-05-24T05:47:12.756Z,13.40
2018-05-24T05:49:40.896Z,12.83
2018-05-24T05:52:10.881Z,13.30
2018-05-24T05:54:38.858Z,12.70
2018-05-24T05:57:07.357Z,12.10
2018-05-24T05:59:35.918Z,12.10
2018-05-24T06:02:05.077Z,11.13
2018-05-24T06:04:33.481Z,11.33
2018-05-24T06:07:01.691Z,11.67
2018-05-24T06:09:30.568Z,10.83
2018-05-24T06:11:59.789Z,10.53
2018-05-24T06:14:29.038Z,10.40
2018-05-24T06:16:57.189Z,10.40
2018-05-24T06:19:25.326Z,10.43
2018-05-24T06:21:53.816Z,9.37
2018-05-24T06:24:22.811Z,9.80
2018-05-24T06:26:51.176Z,10.27
2018-05-24T06:29:20.112Z,9.80
2018-05-24T06:31:49.137Z,10.07
2018-05-24T06:34:19.344Z,10.00
2018-05-24T06:36:48.659Z,9.53
2018-05-24T06:39:16.760Z,9.70
2018-05-24T06:41:44.909Z,10.03
2018-05-24T06:44:13.211Z,9.43
2018-05-24T06:46:42.416Z,9.73
2018-05-24T06:49:11.284Z,9.47
2018-05-24T06:51:40.197Z,9.33
2018-05-24T06:54:08.769Z,9.90
2018-05-24T06:56:37.761Z,9.07
2018-05-24T06:59:06.633Z,8.90
2018-05-24T07:01:34.928Z,9.17
2018-05-24T07:04:03.029Z,9.47
2018-05-24T07:06:31.130Z,9.23
2018-05-24T07:09:01.855Z,9.53
2018-05-24T07:11:31.542Z,9.17
2018-05-24T07:13:59.849Z,8.97
2018-05-24T07:16:27.944Z,8.50
2018-05-24T07:18:56.077Z,8.80
2018-05-24T07:21:24.205Z,9.43
2018-05-24T07:23:52.305Z,9.10
2018-05-24T07:26:20.565Z,8.60
2018-05-24T07:28:49.607Z,8.60
2018-05-24T07:31:17.823Z,8.50
2018-05-24T07:33:46.713Z,9.30
2018-05-24T07:36:15.589Z,8.60
2018-05-24T07:38:45.132Z,8.60
2018-05-24T07:41:13.240Z,8.87
2018-05-24T07:43:41.355Z,8.77
2018-05-24T07:46:10.098Z,8.57
2018-05-24T07:48:39.131Z,8.80
2018-05-24T07:51:07.344Z,8.83
2018-05-24T07:53:35.725Z,8.23
2018-05-24T07:56:05.006Z,9.37
2018-05-24T07:58:33.894Z,9.03
2018-05-24T08:01:04.202Z,9.07
2018-05-24T08:03:32.460Z,8.73
2018-05-24T08:06:00.826Z,9.37
2018-05-24T08:08:28.944Z,8.90
2018-05-24T08:10:57.840Z,8.93
2018-05-24T08:13:27.303Z,9.03
2018-05-24T08:15:55.536Z,9.53
2018-05-24T08:18:23.724Z,8.67
2018-05-24T08:20:51.822Z,9.80
2018-05-24T08:23:20.232Z,9.67
2018-05-24T08:25:49.090Z,9.13
2018-05-24T08:28:17.456Z,9.70
2018-05-24T08:30:45.580Z,9.30
2018-05-24T08:33:13.749Z,9.33
2018-05-24T08:35:42.361Z,8.70
2018-05-24T08:38:10.947Z,9.97
2018-05-24T08:40:41.221Z,9.47
2018-05-24T08:43:10.023Z,8.73
2018-05-24T08:45:38.497Z,10.10
2018-05-24T08:48:06.613Z,8.93
2018-05-24T08:50:34.731Z,9.60
2018-05-24T08:53:03.415Z,9.50
2018-05-24T08:55:31.640Z,9.03
2018-05-24T08:57:59.736Z,8.77
2018-05-24T09:00:28.675Z,8.93
2018-05-24T09:02:57.326Z,9.17
2018-05-24T09:05:25.443Z,9.10
2018-05-24T09:07:54.328Z,9.70
2018-05-24T09:10:23.311Z,9.23
2018-05-24T09:12:51.571Z,9.50
2018-05-24T09:15:19.684Z,9.63
2018-05-24T09:17:47.847Z,9.20
2018-05-24T09:20:17.531Z,9.43
2018-05-24T09:22:45.754Z,9.00
2018-05-24T09:25:13.920Z,10.40
2018-05-24T09:27:42.759Z,9.67
2018-05-24T09:30:12.903Z,10.10
2018-05-24T09:32:41.065Z,8.57
2018-05-24T09:35:09.696Z,9.50
2018-05-24T09:37:39.032Z,9.60
2018-05-24T09:40:07.603Z,10.33
2018-05-24T09:42:35.715Z,9.60
2018-05-24T09:45:07.566Z,9.77
2018-05-24T09:47:35.710Z,9.30
2018-05-24T09:50:05.196Z,8.27
2018-05-24T09:52:33.289Z,9.93
2018-05-24T09:55:01.426Z,9.07
2018-05-24T09:57:30.731Z,9.40
2018-05-24T09:59:58.891Z,9.47
2018-05-24T10:02:27.766Z,9.57
2018-05-24T10:04:56.683Z,10.33
2018-05-24T10:07:24.793Z,8.80
2018-05-24T10:09:53.046Z,8.70
2018-05-24T10:12:21.490Z,8.77
2018-05-24T10:14:50.385Z,8.47
2018-05-24T10:17:18.593Z,9.10
2018-05-24T10:19:46.814Z,9.63
2018-05-24T10:22:16.097Z,10.63
2018-05-24T10:24:44.256Z,9.80
2018-05-24T10:27:12.374Z,8.70
2018-05-24T10:29:41.351Z,11.20
2018-05-24T10:32:09.962Z,10.37
2018-05-24T10:34:39.359Z,10.47
2018-05-24T10:37:07.449Z,12.30
2018-05-24T10:39:35.586Z,11.10
2018-05-24T10:42:04.092Z,11.57
2018-05-24T10:44:32.972Z,11.80
2018-05-24T10:47:01.870Z,11.77
2018-05-24T10:49:30.733Z,11.07
2018-05-24T10:51:58.934Z,10.70
2018-05-24T10:54:27.354Z,11.10
2018-05-24T10:56:55.874Z,10.50
2018-05-24T10:59:23.978Z,10.03
2018-05-24T11:01:52.199Z,10.90
2018-05-24T11:04:20.600Z,8.80
2018-05-24T11:06:48.699Z,10.40
2018-05-24T11:09:16.906Z,10.00
2018-05-24T11:11:46.936Z,10.27
2018-05-24T11:14:15.164Z,8.70
2018-05-24T11:16:43.327Z,9.30
2018-05-24T11:19:12.591Z,9.13
2018-05-24T11:21:40.901Z,9.50
2018-05-24T11:24:09.795Z,8.87
2018-05-24T11:26:38.695Z,8.52
2018-05-24T11:29:07.770Z,9.00
2018-05-24T11:31:36.384Z,9.73
2018-05-24T11:34:05.565Z,10.07
2018-05-24T11:36:35.499Z,9.93
2018-05-24T11:39:03.624Z,11.73
2018-05-24T11:41:32.202Z,9.97
2018-05-24T11:44:00.323Z,8.93
2018-05-24T11:46:29.299Z,9.07
2018-05-24T11:49:00.102Z,8.60
2018-05-24T11:51:28.206Z,9.80
2018-05-24T11:53:57.120Z,8.95
2018-05-24T11:56:25.985Z,7.80
2018-05-24T11:58:54.098Z,8.40
2018-05-24T12:01:22.223Z,8.02
2018-05-24T12:03:50.812Z,9.93
2018-05-24T12:06:19.369Z,9.90
2018-05-24T12:08:47.475Z,9.98
2018-05-24T12:11:16.449Z,9.63
2018-05-24T12:13:45.136Z,8.73
2018-05-24T12:16:13.248Z,9.47
2018-05-24T12:18:41.375Z,8.73
2018-05-24T12:21:09.493Z,8.50
2018-05-24T12:23:37.671Z,8.73
2018-05-24T12:26:05.703Z,7.67
2018-05-24T12:28:33.814Z,8.50
2018-05-24T12:31:01.947Z,8.00
2018-05-24T12:33:30.141Z,9.63
2018-05-24T12:35:59.011Z,9.55
2018-05-24T12:38:28.773Z,8.97
2018-05-24T12:40:57.048Z,9.43
2018-05-24T12:43:25.149Z,9.73
2018-05-24T12:45:53.305Z,9.53
2018-05-24T12:48:21.515Z,9.63
2018-05-24T12:50:49.643Z,9.90
2018-05-24T12:53:17.748Z,11.27
2018-05-24T12:55:45.851Z,9.60
2018-05-24T12:58:14.818Z,10.43
2018-05-24T13:00:42.925Z,10.43
2018-05-24T13:03:11.795Z,8.13
2018-05-24T13:05:39.911Z,10.53
2018-05-24T13:08:08.247Z,9.20
2018-05-24T13:10:36.369Z,8.77
2018-05-24T13:13:04.499Z,9.85
2018-05-24T13:15:33.391Z,9.98
2018-05-24T13:18:02.281Z,11.32
2018-05-24T13:20:31.220Z,11.10
2018-05-24T13:22:59.319Z,8.80
2018-05-24T13:25:27.914Z,11.40
2018-05-24T13:27:56.292Z,12.00
2018-05-24T13:30:26.915Z,11.65
2018-05-24T13:32:56.541Z,11.02
2018-05-24T13:35:24.732Z,11.20
2018-05-24T13:37:53.621Z,11.32
2018-05-24T13:40:22.505Z,11.10
2018-05-24T13:42:51.384Z,10.20
2018-05-24T13:45:20.371Z,9.23
2018-05-24T13:47:49.166Z,9.48
2018-05-24T13:50:17.433Z,8.88
2018-05-24T13:52:45.567Z,9.30
2018-05-24T13:55:14.207Z,12.30
2018-05-24T13:57:45.828Z,10.52
2018-05-24T14:00:13.974Z,11.32
2018-05-24T14:02:42.111Z,10.20
2018-05-24T14:05:11.022Z,10.18
2018-05-24T14:07:39.130Z,10.47
2018-05-24T14:10:08.277Z,10.63
2018-05-24T14:12:37.793Z,10.75
2018-05-24T14:15:05.916Z,10.07
2018-05-24T14:17:35.602Z,12.20
2018-05-24T14:20:03.959Z,10.18
2018-05-24T14:22:32.949Z,11.50
2018-05-24T14:25:01.124Z,10.65
2018-05-24T14:27:30.300Z,12.05
2018-05-24T14:30:00.288Z,9.57
2018-05-24T14:32:28.469Z,9.25
2018-05-24T14:34:56.563Z,10.02
2018-05-24T14:37:26.335Z,10.80
2018-05-24T14:39:54.466Z,11.00
2018-05-24T14:42:22.716Z,11.75
2018-05-24T14:44:52.397Z,13.32
2018-05-24T14:47:20.470Z,11.27
2018-05-24T14:49:48.694Z,12.10
2018-05-24T14:52:17.703Z,10.77
2018-05-24T14:54:46.372Z,11.77
2018-05-24T14:57:15.893Z,11.43
2018-05-24T14:59:44.032Z,12.63
2018-05-24T15:02:12.152Z,14.23
2018-05-24T15:04:40.267Z,11.63
2018-05-24T15:07:08.462Z,10.37
2018-05-24T15:09:37.496Z,10.23
2018-05-24T15:12:06.912Z,9.87
2018-05-24T15:14:35.209Z,10.03
2018-05-24T15:17:03.319Z,7.40
2018-05-24T15:19:32.208Z,8.13
2018-05-24T15:22:01.159Z,7.67
2018-05-24T15:24:29.268Z,8.40
2018-05-24T15:26:58.155Z,6.30
2018-05-24T15:29:26.385Z,7.20
2018-05-24T15:31:54.512Z,7.10
2018-05-24T15:34:24.391Z,6.13
2018-05-24T15:36:53.246Z,6.03
2018-05-24T15:39:22.464Z,6.47
2018-05-24T15:41:50.873Z,6.47
2018-05-24T15:44:19.057Z,6.47
2018-05-24T15:46:47.196Z,6.13
2018-05-24T15:49:15.332Z,6.50
2018-05-24T15:51:43.423Z,7.00
2018-05-24T15:54:12.149Z,7.43
2018-05-24T15:56:40.418Z,7.80
2018-05-24T15:59:08.606Z,8.23
2018-05-24T16:01:38.674Z,9.70
2018-05-24T16:04:06.869Z,11.67
2018-05-24T16:06:35.166Z,10.97
2018-05-24T16:09:03.374Z,10.03
2018-05-24T16:11:32.925Z,10.97
2018-05-24T16:14:01.372Z,11.03
2018-05-24T16:16:35.947Z,11.73
2018-05-24T16:19:04.961Z,11.87
2018-05-24T16:21:33.884Z,12.13
2018-05-24T16:24:03.461Z,14.03
2018-05-24T16:26:32.446Z,14.30
2018-05-24T16:29:02.044Z,14.13
2018-05-24T16:31:30.409Z,15.20
2018-05-24T16:33:58.593Z,16.10
2018-05-24T16:36:27.087Z,15.73
2018-05-24T16:38:57.086Z,14.50
2018-05-24T16:41:25.952Z,15.03
2018-05-24T16:43:54.068Z,13.33
2018-05-24T16:46:23.354Z,13.63
2018-05-24T16:48:51.699Z,13.50
2018-05-24T16:51:19.830Z,13.27
2018-05-24T16:53:48.726Z,13.53
2018-05-24T16:56:18.121Z,13.87
2018-05-24T16:58:46.305Z,13.30
2018-05-24T17:01:15.433Z,13.20
2018-05-24T17:03:43.551Z,13.50
2018-05-24T17:06:12.328Z,13.20
2018-05-24T17:08:41.167Z,12.83
2018-05-24T17:11:09.283Z,12.13
2018-05-24T17:13:40.590Z,11.03
2018-05-24T17:16:08.710Z,11.57
2018-05-24T17:18:36.929Z,11.23
2018-05-24T17:21:05.052Z,11.10
2018-05-24T17:23:34.050Z,11.57
2018-05-24T17:26:03.088Z,11.03
2018-05-24T17:28:32.132Z,12.03
2018-05-24T17:31:00.489Z,12.07
2018-05-24T17:33:30.054Z,13.60
2018-05-24T17:35:59.342Z,12.13
2018-05-24T17:38:27.836Z,12.97
2018-05-24T17:40:56.795Z,12.57
2018-05-24T17:43:24.916Z,12.23
2018-05-24T17:45:53.045Z,12.47
2018-05-24T17:48:21.164Z,13.13
2018-05-24T17:50:49.272Z,13.93
2018-05-24T17:53:18.718Z,13.30
2018-05-24T17:55:47.811Z,13.47
2018-05-24T17:58:16.694Z,14.83
2018-05-24T18:00:46.744Z,14.30
2018-05-24T18:03:14.951Z,13.50
2018-05-24T18:05:43.026Z,13.83
2018-05-24T18:08:11.178Z,12.83
2018-05-24T18:10:39.530Z,14.43
2018-05-24T18:13:08.431Z,14.03
2018-05-24T18:15:36.566Z,14.43
2018-05-24T18:18:04.729Z,14.57
2018-05-24T18:20:33.019Z,14.57
2018-05-24T18:23:02.093Z,13.87
2018-05-24T18:25:30.786Z,14.00
2018-05-24T18:27:59.642Z,16.20
2018-05-24T18:30:28.096Z,13.83
2018-05-24T18:32:57.667Z,17.30
2018-05-24T18:35:25.797Z,14.90
2018-05-24T18:37:54.404Z,14.97
2018-05-24T18:40:22.841Z,16.07
2018-05-24T18:42:51.808Z,15.83
2018-05-24T18:45:19.894Z,16.80
2018-05-24T18:47:49.476Z,17.20
2018-05-24T18:50:17.735Z,16.83
2018-05-24T18:52:45.905Z,18.10
2018-05-24T18:55:14.047Z,18.00
2018-05-24T18:57:42.977Z,18.60
2018-05-24T19:00:11.637Z,19.03
2018-05-24T19:02:39.844Z,19.23
2018-05-24T19:05:08.791Z,18.60
2018-05-24T19:07:36.944Z,19.83
2018-05-24T19:10:05.835Z,19.80
2018-05-24T19:12:36.165Z,20.43
2018-05-24T19:15:04.360Z,21.23
2018-05-24T19:17:33.528Z,21.53
2018-05-24T19:20:01.790Z,23.30
2018-05-24T19:22:31.081Z,21.70
2018-05-24T19:24:59.884Z,22.67
2018-05-24T19:27:29.676Z,23.23
2018-05-24T19:29:58.707Z,24.27
2018-05-24T19:32:27.739Z,24.00
2018-05-24T19:34:55.924Z,25.30
2018-05-24T19:37:24.055Z,25.13
2018-05-24T19:39:52.891Z,25.23
2018-05-24T19:42:21.194Z,24.57
2018-05-24T19:44:49.327Z,27.87
2018-05-24T19:47:17.780Z,28.23
2018-05-24T19:49:46.669Z,26.67
2018-05-24T19:52:15.572Z,28.03
2018-05-24T19:54:43.796Z,28.63
2018-05-24T19:57:11.984Z,29.27
2018-05-24T19:59:40.907Z,29.47
2018-05-24T20:02:09.641Z,29.30
2018-05-24T20:04:38.795Z,30.33
2018-05-24T20:07:06.928Z,29.63
2018-05-24T20:09:35.090Z,31.90
2018-05-24T20:12:03.211Z,29.50
2018-05-24T20:14:31.351Z,30.73
2018-05-24T20:16:59.450Z,31.33
2018-05-24T20:19:27.559Z,31.90
2018-05-24T20:21:55.788Z,33.10
2018-05-24T20:24:24.682Z,33.27
2018-05-24T20:26:52.865Z,34.80
2018-05-24T20:29:21.907Z,36.43
2018-05-24T20:31:50.836Z,37.07
2018-05-24T20:34:19.736Z,39.17
2018-05-24T20:36:48.755Z,41.00
2018-05-24T20:39:16.904Z,42.03
2018-05-24T20:41:46.104Z,41.73
2018-05-24T20:44:14.983Z,41.10
2018-05-24T20:46:43.488Z,40.93
2018-05-24T20:49:11.610Z,42.57
2018-05-24T20:51:39.757Z,39.57
2018-05-24T20:54:07.880Z,41.20
2018-05-24T20:56:36.767Z,40.10
2018-05-24T20:59:05.737Z,39.73
2018-05-24T21:01:33.862Z,38.97
2018-05-24T21:04:01.987Z,40.10
2018-05-24T21:06:30.133Z,38.90
2018-05-24T21:08:58.254Z,36.07
2018-05-24T21:11:26.373Z,33.27
2018-05-24T21:13:54.515Z,32.63
2018-05-24T21:16:23.410Z,32.60
2018-05-24T21:18:52.282Z,34.47
2018-05-24T21:21:21.174Z,31.87
2018-05-24T21:23:50.059Z,32.67
2018-05-24T21:26:18.956Z,33.17
2018-05-24T21:28:47.861Z,34.50
2018-05-24T21:31:15.977Z,31.67
2018-05-24T21:33:44.271Z,32.50
2018-05-24T21:36:12.486Z,31.63
2018-05-24T21:38:40.689Z,32.07
2018-05-24T21:41:09.513Z,32.03
2018-05-24T21:43:37.817Z,32.63
2018-05-24T21:46:05.930Z,32.97
2018-05-24T21:48:34.143Z,32.03
2018-05-24T21:51:02.273Z,29.17
2018-05-24T21:53:30.420Z,29.43
2018-05-24T21:55:58.559Z,28.83
2018-05-24T21:58:28.772Z,28.37
2018-05-24T22:00:57.329Z,26.37
2018-05-24T22:03:26.482Z,26.53
2018-05-24T22:05:54.600Z,27.07
2018-05-24T22:08:22.921Z,26.93
2018-05-24T22:10:51.038Z,26.93
2018-05-24T22:13:20.001Z,26.87
2018-05-24T22:15:48.909Z,29.53
2018-05-24T22:18:17.038Z,27.20
2018-05-24T22:20:46.675Z,26.53
2018-05-24T22:23:15.562Z,27.20
2018-05-24T22:25:44.570Z,27.80
2018-05-24T22:28:14.917Z,28.03
2018-05-24T22:30:43.069Z,27.20
2018-05-24T22:33:11.191Z,27.33
2018-05-24T22:35:39.908Z,27.63
2018-05-24T22:38:08.796Z,26.37
2018-05-24T22:40:38.667Z,27.87
2018-05-24T22:43:06.806Z,29.23
2018-05-24T22:45:34.999Z,30.77
2018-05-24T22:48:04.380Z,28.97
2018-05-24T22:50:33.263Z,28.93
2018-05-24T22:53:01.455Z,30.43
2018-05-24T22:55:29.604Z,30.00
2018-05-24T22:57:58.494Z,29.93
2018-05-24T23:00:27.461Z,30.77
2018-05-24T23:02:55.626Z,32.03
2018-05-24T23:05:23.766Z,32.23
2018-05-24T23:07:51.894Z,32.33
2018-05-24T23:10:20.050Z,33.50
2018-05-24T23:12:48.348Z,31.63
2018-05-24T23:15:17.339Z,32.73
2018-05-24T23:17:46.227Z,31.80
2018-05-24T23:20:14.359Z,32.37
2018-05-24T23:22:42.490Z,32.83
2018-05-24T23:25:11.447Z,33.00
2018-05-24T23:27:39.578Z,32.20
2018-05-24T23:30:07.718Z,33.13
2018-05-24T23:32:36.676Z,33.07
2018-05-24T23:35:05.563Z,34.50
2018-05-24T23:37:33.672Z,34.70
2018-05-24T23:40:02.593Z,35.13
2018-05-24T23:42:30.833Z,34.57
2018-05-24T23:44:59.409Z,33.27
2018-05-24T23:47:27.491Z,34.43
2018-05-24T23:49:56.687Z,34.77
2018-05-24T23:52:26.303Z,38.13
2018-05-24T23:54:55.479Z,38.23
2018-05-24T23:57:23.614Z,37.13
2018-05-24T23:59:51.753Z,37.40
